Time,TemperatureF,DewpointF,PressureIn,WindDirection,WindDirectionDegrees,WindSpeedMPH,WindSpeedGustMPH,Humidity,HourlyPrecipIn,Conditions,Clouds,dailyrainin,SolarRadiationWatts/m^2,SoftwareType,DateUTC
2013-01-02 00:02:00,21.0,5.0,-100.00,NNW,344,0.0,5.0,49,0.00,,,0.00,0.000000,,2013-01-02 08:02:00,
2013-01-02 00:11:00,21.0,5.0,-100.00,NNW,344,0.0,5.0,49,0.00,,,0.00,0.000000,,2013-01-02 08:11:00,
2013-01-02 00:22:00,21.0,5.0,-100.00,NNW,344,0.0,5.0,49,0.00,,,0.00,0.000000,,2013-01-02 08:22:00,
2013-01-02 00:32:00,21.0,5.0,-100.00,NNW,344,0.0,5.0,49,0.00,,,0.00,0.000000,,2013-01-02 08:32:00,
2013-01-02 00:53:00,22.0,5.0,-100.00,NNE,21,0.0,6.0,48,0.00,,,0.00,0.000000,,2013-01-02 08:53:00,
2013-01-02 01:02:00,22.0,5.0,-100.00,NNE,21,0.0,6.0,48,0.00,,,0.00,0.000000,,2013-01-02 09:02:00,
2013-01-02 01:12:00,22.0,5.0,-100.00,NNE,21,0.0,6.0,48,0.00,,,0.00,0.000000,,2013-01-02 09:12:00,
2013-01-02 01:22:00,22.0,5.0,-100.00,NNE,21,0.0,6.0,48,0.00,,,0.00,0.000000,,2013-01-02 09:22:00,
2013-01-02 01:32:00,22.0,5.0,-100.00,NNE,21,0.0,6.0,48,0.00,,,0.00,0.000000,,2013-01-02 09:32:00,
2013-01-02 01:52:00,21.0,4.0,-100.00,SSE,150,0.0,5.0,48,0.00,,,0.00,0.000000,,2013-01-02 09:52:00,
2013-01-02 02:02:00,21.0,4.0,-100.00,SSE,150,0.0,5.0,48,0.00,,,0.00,0.000000,,2013-01-02 10:02:00,
2013-01-02 02:12:00,21.0,4.0,-100.00,SSE,150,0.0,5.0,48,0.00,,,0.00,0.000000,,2013-01-02 10:12:00,
2013-01-02 02:22:00,21.0,4.0,-100.00,SSE,150,0.0,5.0,48,0.00,,,0.00,0.000000,,2013-01-02 10:22:00,
2013-01-02 02:32:00,21.0,4.0,-100.00,SSE,150,0.0,5.0,48,0.00,,,0.00,0.000000,,2013-01-02 10:32:00,
2013-01-02 02:52:00,19.0,7.0,-100.00,North,358,0.0,4.0,58,0.00,,,0.00,0.000000,,2013-01-02 10:52:00,
2013-01-02 03:02:00,19.0,7.0,-100.00,North,358,0.0,4.0,58,0.00,,,0.00,0.000000,,2013-01-02 11:02:00,
2013-01-02 03:12:00,19.0,7.0,-100.00,North,358,0.0,4.0,58,0.00,,,0.00,0.000000,,2013-01-02 11:12:00,
2013-01-02 03:22:00,19.0,7.0,-100.00,North,358,0.0,4.0,58,0.00,,,0.00,0.000000,,2013-01-02 11:22:00,
2013-01-02 03:32:00,19.0,7.0,-100.00,North,358,0.0,4.0,58,0.00,,,0.00,0.000000,,2013-01-02 11:32:00,
2013-01-02 03:53:00,17.0,5.0,-100.00,NNW,344,0.0,5.0,58,0.00,,,0.00,0.000000,,2013-01-02 11:53:00,
2013-01-02 04:02:00,17.0,5.0,-100.00,NNW,344,0.0,5.0,58,0.00,,,0.00,0.000000,,2013-01-02 12:02:00,
2013-01-02 04:12:00,17.0,5.0,-100.00,NNW,344,0.0,5.0,58,0.00,,,0.00,0.000000,,2013-01-02 12:12:00,
2013-01-02 04:22:00,17.0,5.0,-100.00,NNW,344,0.0,5.0,58,0.00,,,0.00,0.000000,,2013-01-02 12:22:00,
2013-01-02 04:32:00,17.0,5.0,-100.00,NNW,344,0.0,5.0,58,0.00,,,0.00,0.000000,,2013-01-02 12:32:00,
2013-01-02 04:53:00,18.0,7.0,-100.00,NNW,345,0.0,5.0,62,0.00,,,0.00,0.000000,,2013-01-02 12:53:00,
2013-01-02 05:02:00,18.0,7.0,-100.00,NNW,345,0.0,5.0,62,0.00,,,0.00,0.000000,,2013-01-02 13:02:00,
2013-01-02 05:12:00,18.0,7.0,-100.00,NNW,345,0.0,5.0,62,0.00,,,0.00,0.000000,,2013-01-02 13:12:00,
2013-01-02 05:22:00,18.0,7.0,-100.00,NNW,345,0.0,5.0,62,0.00,,,0.00,0.000000,,2013-01-02 13:22:00,
2013-01-02 05:32:00,18.0,7.0,-100.00,NNW,345,0.0,5.0,62,0.00,,,0.00,0.000000,,2013-01-02 13:32:00,
2013-01-02 06:02:00,17.0,6.0,-100.00,WNW,287,0.0,5.0,60,0.00,,,0.00,0.000000,,2013-01-02 14:02:00,
2013-01-02 06:12:00,17.0,6.0,-100.00,WNW,287,0.0,5.0,60,0.00,,,0.00,0.000000,,2013-01-02 14:12:00,
2013-01-02 06:22:00,17.0,6.0,-100.00,WNW,287,0.0,5.0,60,0.00,,,0.00,0.000000,,2013-01-02 14:22:00,
2013-01-02 06:32:00,17.0,6.0,-100.00,WNW,287,0.0,5.0,60,0.00,,,0.00,0.000000,,2013-01-02 14:32:00,
2013-01-02 07:02:00,21.0,3.0,-100.00,NNW,346,0.0,5.0,44,0.00,,,0.00,0.000000,,2013-01-02 15:02:00,
2013-01-02 07:12:00,21.0,3.0,-100.00,NNW,346,0.0,5.0,44,0.00,,,0.00,0.000000,,2013-01-02 15:12:00,
2013-01-02 07:22:00,21.0,3.0,-100.00,NNW,346,0.0,5.0,44,0.00,,,0.00,0.000000,,2013-01-02 15:22:00,
2013-01-02 07:33:00,21.0,3.0,-100.00,NNW,346,0.0,5.0,44,0.00,,,0.00,0.000000,,2013-01-02 15:33:00,
2013-01-02 07:53:00,25.0,-1.0,-100.00,North,358,0.0,6.0,32,0.00,,,0.00,6.000000,,2013-01-02 15:53:00,
2013-01-02 08:03:00,25.0,-1.0,-100.00,North,358,0.0,6.0,32,0.00,,,0.00,6.000000,,2013-01-02 16:03:00,
2013-01-02 08:32:00,25.0,-1.0,-100.00,North,358,0.0,6.0,32,0.00,,,0.00,6.000000,,2013-01-02 16:32:00,
2013-01-02 09:03:00,31.0,6.0,-100.00,South,185,0.0,6.0,34,0.00,,,0.00,56.000000,,2013-01-02 17:03:00,
2013-01-02 09:12:00,31.0,6.0,-100.00,South,185,0.0,6.0,34,0.00,,,0.00,56.000000,,2013-01-02 17:12:00,
2013-01-02 09:22:00,31.0,6.0,-100.00,South,185,0.0,6.0,34,0.00,,,0.00,56.000000,,2013-01-02 17:22:00,
2013-01-02 09:33:00,31.0,6.0,-100.00,South,185,0.0,6.0,34,0.00,,,0.00,56.000000,,2013-01-02 17:33:00,
2013-01-02 10:02:00,38.0,4.0,-100.00,WSW,256,1.0,7.0,23,0.00,,,0.00,431.000000,,2013-01-02 18:02:00,
2013-01-02 10:33:00,38.0,4.0,-100.00,WSW,256,1.0,7.0,23,0.00,,,0.00,431.000000,,2013-01-02 18:33:00,
2013-01-02 11:02:00,40.0,3.0,-100.00,NE,39,1.0,10.0,21,0.00,,,0.00,600.000000,,2013-01-02 19:02:00,
2013-01-02 11:12:00,40.0,3.0,-100.00,NE,39,1.0,10.0,21,0.00,,,0.00,600.000000,,2013-01-02 19:12:00,
2013-01-02 11:22:00,40.0,3.0,-100.00,NE,39,1.0,10.0,21,0.00,,,0.00,600.000000,,2013-01-02 19:22:00,
2013-01-02 11:32:00,40.0,3.0,-100.00,NE,39,1.0,10.0,21,0.00,,,0.00,600.000000,,2013-01-02 19:32:00,
2013-01-02 12:02:00,43.0,0.0,-100.00,ESE,119,2.0,9.0,16,0.00,,,0.00,702.000000,,2013-01-02 20:02:00,
2013-01-02 12:12:00,43.0,0.0,-100.00,ESE,119,2.0,9.0,16,0.00,,,0.00,702.000000,,2013-01-02 20:12:00,
2013-01-02 12:22:00,43.0,0.0,-100.00,ESE,119,2.0,9.0,16,0.00,,,0.00,702.000000,,2013-01-02 20:22:00,
2013-01-02 12:32:00,43.0,0.0,-100.00,ESE,119,2.0,9.0,16,0.00,,,0.00,702.000000,,2013-01-02 20:32:00,
2013-01-02 12:53:00,45.0,2.0,-100.00,North,357,3.0,9.0,16,0.00,,,0.00,729.000000,,2013-01-02 20:53:00,
2013-01-02 13:03:00,45.0,2.0,-100.00,North,357,3.0,9.0,16,0.00,,,0.00,729.000000,,2013-01-02 21:03:00,
2013-01-02 13:12:00,45.0,2.0,-100.00,North,357,3.0,9.0,16,0.00,,,0.00,729.000000,,2013-01-02 21:12:00,
2013-01-02 13:22:00,45.0,2.0,-100.00,North,357,3.0,9.0,16,0.00,,,0.00,729.000000,,2013-01-02 21:22:00,
2013-01-02 13:32:00,45.0,2.0,-100.00,North,357,3.0,9.0,16,0.00,,,0.00,729.000000,,2013-01-02 21:32:00,
2013-01-02 14:02:00,47.0,2.0,-100.00,SE,129,3.0,10.0,15,-99.99,,,0.00,679.000000,,2013-01-02 22:02:00,
2013-01-02 14:53:00,46.0,-4.0,-100.00,NNE,17,4.0,11.0,12,-99.99,,,0.00,564.000000,,2013-01-02 22:53:00,
2013-01-02 15:02:00,46.0,-4.0,-100.00,NNE,17,4.0,11.0,12,-99.99,,,0.00,564.000000,,2013-01-02 23:02:00,
2013-01-02 15:53:00,43.0,0.0,-100.00,NNE,16,1.0,12.0,16,-99.99,,,0.00,338.000000,,2013-01-02 23:53:00,
2013-01-02 16:02:00,43.0,0.0,-100.00,NNE,16,1.0,12.0,16,-99.99,,,0.00,338.000000,,2013-01-03 00:02:00,
2013-01-02 16:52:00,34.0,-1.0,-100.00,SSE,164,0.0,9.0,22,-99.99,,,0.00,95.000000,,2013-01-03 00:52:00,
2013-01-02 17:02:00,34.0,-1.0,-100.00,SSE,164,0.0,9.0,22,-99.99,,,0.00,95.000000,,2013-01-03 01:02:00,
2013-01-02 17:12:00,34.0,-1.0,-100.00,SSE,164,0.0,9.0,22,-99.99,,,0.00,95.000000,,2013-01-03 01:12:00,
2013-01-02 17:22:00,34.0,-1.0,-100.00,SSE,164,0.0,9.0,22,-99.99,,,0.00,95.000000,,2013-01-03 01:22:00,
2013-01-02 17:32:00,34.0,-1.0,-100.00,SSE,164,0.0,9.0,22,-99.99,,,0.00,95.000000,,2013-01-03 01:32:00,
2013-01-02 18:02:00,31.0,3.0,-100.00,NNE,24,0.0,5.0,30,0.00,,,0.00,3.000000,,2013-01-03 02:02:00,
2013-01-02 18:12:00,31.0,3.0,-100.00,NNE,24,0.0,5.0,30,0.00,,,0.00,3.000000,,2013-01-03 02:12:00,
2013-01-02 18:22:00,31.0,3.0,-100.00,NNE,24,0.0,5.0,30,0.00,,,0.00,3.000000,,2013-01-03 02:22:00,
2013-01-02 18:32:00,31.0,3.0,-100.00,NNE,24,0.0,5.0,30,0.00,,,0.00,3.000000,,2013-01-03 02:32:00,
2013-01-02 18:34:00,27.0,6.0,-100.00,North,358,0.0,7.0,41,0.00,,,0.00,0.000000,,2013-01-03 02:34:00,
2013-01-02 19:02:00,27.0,6.0,-100.00,North,358,0.0,7.0,41,0.00,,,0.00,0.000000,,2013-01-03 03:02:00,
2013-01-02 19:12:00,27.0,6.0,-100.00,North,358,0.0,7.0,41,0.00,,,0.00,0.000000,,2013-01-03 03:12:00,
2013-01-02 19:22:00,27.0,6.0,-100.00,North,358,0.0,7.0,41,0.00,,,0.00,0.000000,,2013-01-03 03:22:00,
2013-01-02 19:53:00,26.0,3.0,-100.00,NE,45,0.0,6.0,36,0.00,,,0.00,0.000000,,2013-01-03 03:53:00,
2013-01-02 20:02:00,26.0,3.0,-100.00,NE,45,0.0,6.0,36,0.00,,,0.00,0.000000,,2013-01-03 04:02:00,
2013-01-02 20:12:00,26.0,3.0,-100.00,NE,45,0.0,6.0,36,0.00,,,0.00,0.000000,,2013-01-03 04:12:00,
2013-01-02 20:22:00,26.0,3.0,-100.00,NE,45,0.0,6.0,36,0.00,,,0.00,0.000000,,2013-01-03 04:22:00,
2013-01-02 20:32:00,26.0,3.0,-100.00,NE,45,0.0,6.0,36,0.00,,,0.00,0.000000,,2013-01-03 04:32:00,
2013-01-02 21:03:00,26.0,2.0,-100.00,North,2,1.0,5.0,35,0.00,,,0.00,0.000000,,2013-01-03 05:03:00,
2013-01-02 21:12:00,26.0,2.0,-100.00,North,2,1.0,5.0,35,0.00,,,0.00,0.000000,,2013-01-03 05:12:00,
2013-01-02 21:22:00,26.0,2.0,-100.00,North,2,1.0,5.0,35,0.00,,,0.00,0.000000,,2013-01-03 05:22:00,
2013-01-02 21:33:00,26.0,2.0,-100.00,North,2,1.0,5.0,35,0.00,,,0.00,0.000000,,2013-01-03 05:33:00,
2013-01-02 22:02:00,25.0,6.0,-100.00,NNE,23,0.0,5.0,43,0.00,,,0.00,0.000000,,2013-01-03 06:02:00,
2013-01-02 22:12:00,25.0,6.0,-100.00,NNE,23,0.0,5.0,43,0.00,,,0.00,0.000000,,2013-01-03 06:12:00,
2013-01-02 22:22:00,25.0,6.0,-100.00,NNE,23,0.0,5.0,43,0.00,,,0.00,0.000000,,2013-01-03 06:22:00,
2013-01-02 22:32:00,25.0,6.0,-100.00,NNE,23,0.0,5.0,43,0.00,,,0.00,0.000000,,2013-01-03 06:32:00,
2013-01-02 23:02:00,27.0,1.0,-100.00,SE,139,1.0,8.0,32,0.00,,,0.00,0.000000,,2013-01-03 07:02:00,
2013-01-02 23:12:00,27.0,1.0,-100.00,SE,139,1.0,8.0,32,0.00,,,0.00,0.000000,,2013-01-03 07:12:00,
2013-01-02 23:22:00,27.0,1.0,-100.00,SE,139,1.0,8.0,32,0.00,,,0.00,0.000000,,2013-01-03 07:22:00,
2013-01-02 23:32:00,27.0,1.0,-100.00,SE,139,1.0,8.0,32,0.00,,,0.00,0.000000,,2013-01-03 07:32:00,